createdAt,value
2022-09-26T00:00:36.933Z,97545.78
2022-09-26T00:01:41.951Z,97550.03
2022-09-26T00:02:45.233Z,97545.06
2022-09-26T00:03:56.572Z,97539.81
2022-09-26T00:04:59.365Z,97544.56
2022-09-26T00:06:04.981Z,97540.63
2022-09-26T00:07:07.739Z,97530.03
2022-09-26T00:08:10.392Z,97542.66
2022-09-26T00:09:14.996Z,97539.31
2022-09-26T00:10:18.034Z,97541.19
2022-09-26T00:11:27.785Z,97542.41
2022-09-26T00:12:30.335Z,97538.53
2022-09-26T00:13:34.909Z,97534.28
2022-09-26T00:14:37.684Z,97538.44
2022-09-26T00:15:40.364Z,97541.06
2022-09-26T00:16:43.506Z,97544.63
2022-09-26T00:17:46.266Z,97541.09
2022-09-26T00:18:50.832Z,97535.62
2022-09-26T00:19:53.498Z,97529.75
2022-09-26T00:21:08.241Z,97532.16
2022-09-26T00:22:10.854Z,97532.97
2022-09-26T00:23:13.805Z,97536.47
2022-09-26T00:24:16.517Z,97538.34
2022-09-26T00:25:19.683Z,97537.69
2022-09-26T00:26:24.620Z,97529.00
2022-09-26T00:27:27.366Z,97526.63
2022-09-26T00:28:30.145Z,97527.78
2022-09-26T00:29:32.788Z,97522.06
2022-09-26T00:30:37.330Z,97507.91
2022-09-26T00:31:43.424Z,97515.59
2022-09-26T00:32:46.185Z,97508.09
2022-09-26T00:33:49.057Z,97505.78
2022-09-26T00:34:51.661Z,97515.69
2022-09-26T00:35:56.015Z,97509.00
2022-09-26T00:36:58.697Z,97516.28
2022-09-26T00:38:01.335Z,97514.84
2022-09-26T00:39:04.333Z,97506.22
2022-09-26T00:40:07.798Z,97512.31
2022-09-26T00:41:10.481Z,97510.41
2022-09-26T00:42:15.119Z,97507.94
2022-09-26T00:43:41.594Z,97504.88
2022-09-26T00:44:54.544Z,97502.53
2022-09-26T00:46:19.145Z,97494.37
2022-09-26T00:47:50.699Z,97483.13
2022-09-26T00:49:29.217Z,97490.62
2022-09-26T00:50:37.469Z,97500.28
2022-09-26T00:51:43.405Z,97506.16
2022-09-26T00:53:01.069Z,97499.09
2022-09-26T00:54:05.439Z,97496.13
2022-09-26T00:55:11.930Z,97490.28
2022-09-26T00:56:23.120Z,97484.69
2022-09-26T00:57:47.114Z,97486.84
2022-09-26T00:59:01.265Z,97485.28
2022-09-26T01:00:09.650Z,97480.44
2022-09-26T01:01:13.477Z,97477.22
2022-09-26T01:02:16.806Z,97475.38
2022-09-26T01:03:20.844Z,97477.06
2022-09-26T01:04:28.535Z,97487.19
2022-09-26T01:05:32.562Z,97476.94
2022-09-26T01:06:35.836Z,97475.09
2022-09-26T01:07:38.435Z,97473.38
2022-09-26T01:08:58.691Z,97479.06
2022-09-26T01:10:04.055Z,97482.69
2022-09-26T01:11:07.567Z,97480.59
2022-09-26T01:12:12.354Z,97483.56
2022-09-26T01:13:15.145Z,97488.91
2022-09-26T01:14:17.713Z,97476.56
2022-09-26T01:15:20.564Z,97484.44
2022-09-26T01:16:24.009Z,97485.31
2022-09-26T01:17:27.640Z,97475.72
2022-09-26T01:18:31.085Z,97475.34
2022-09-26T01:19:47.332Z,97483.38
2022-09-26T01:20:56.231Z,97484.56
2022-09-26T01:22:43.681Z,97477.59
2022-09-26T01:24:26.839Z,97471.69
2022-09-26T01:26:07.412Z,97472.03
2022-09-26T01:27:16.060Z,97469.84
2022-09-26T01:28:58.024Z,97466.78
2022-09-26T01:30:21.667Z,97465.88
2022-09-26T01:31:33.577Z,97460.56
2022-09-26T01:33:10.488Z,97455.87
2022-09-26T01:34:19.265Z,97464.03
2022-09-26T01:35:36.727Z,97459.91
2022-09-26T01:37:10.978Z,97462.81
2022-09-26T01:38:35.880Z,97460.56
2022-09-26T01:39:46.818Z,97454.87
2022-09-26T01:41:15.536Z,97457.03
2022-09-26T01:42:32.918Z,97452.94
2022-09-26T01:44:17.566Z,97451.03
2022-09-26T01:45:26.783Z,97456.34
2022-09-26T01:47:00.877Z,97450.16
2022-09-26T01:48:18.845Z,97451.31
2022-09-26T01:49:32.609Z,97447.13
2022-09-26T01:50:44.329Z,97443.47
2022-09-26T01:51:53.824Z,97441.28
2022-09-26T01:53:08.501Z,97440.53
2022-09-26T01:54:23.660Z,97430.66
2022-09-26T01:55:36.090Z,97434.03
2022-09-26T01:56:40.656Z,97438.41
2022-09-26T01:57:46.135Z,97429.31
2022-09-26T01:58:55.180Z,97421.16
2022-09-26T02:00:02.484Z,97414.84
2022-09-26T02:01:10.818Z,97414.38
2022-09-26T02:02:27.518Z,97422.72
2022-09-26T02:03:37.037Z,97424.56
2022-09-26T02:04:43.633Z,97420.28
2022-09-26T02:05:53.078Z,97422.13
2022-09-26T02:07:12.143Z,97428.66
2022-09-26T02:08:20.224Z,97425.66
2022-09-26T02:09:35.398Z,97424.81
2022-09-26T02:10:48.239Z,97423.34
2022-09-26T02:11:56.707Z,97420.91
2022-09-26T02:13:09.446Z,97414.69
2022-09-26T02:14:22.418Z,97416.94
2022-09-26T02:15:27.634Z,97407.91
2022-09-26T02:16:38.184Z,97404.13
2022-09-26T02:17:44.934Z,97408.16
2022-09-26T02:18:57.129Z,97405.09
2022-09-26T02:20:05.185Z,97409.59
2022-09-26T02:21:15.946Z,97399.22
2022-09-26T02:22:19.137Z,97393.50
2022-09-26T02:23:22.079Z,97407.22
2022-09-26T02:24:24.918Z,97409.25
2022-09-26T02:25:28.657Z,97415.41
2022-09-26T02:26:31.304Z,97428.28
2022-09-26T02:27:33.983Z,97435.44
2022-09-26T02:28:36.671Z,97427.91
2022-09-26T02:29:44.206Z,97426.28
2022-09-26T02:30:49.878Z,97428.78
2022-09-26T02:32:04.240Z,97443.78
2022-09-26T02:33:06.888Z,97449.66
2022-09-26T02:34:09.562Z,97451.88
2022-09-26T02:35:35.076Z,97448.75
2022-09-26T02:36:38.522Z,97443.38
2022-09-26T02:37:41.293Z,97455.59
2022-09-26T02:38:44.133Z,97443.25
2022-09-26T02:39:47.759Z,97442.75
2022-09-26T02:41:09.496Z,97435.19
2022-09-26T02:42:25.534Z,97434.28
2022-09-26T02:43:44.822Z,97432.25
2022-09-26T02:45:06.103Z,97431.94
2022-09-26T02:46:41.625Z,97418.47
2022-09-26T02:48:02.632Z,97414.38
2022-09-26T02:49:24.093Z,97411.44
2022-09-26T02:50:54.976Z,97411.25
2022-09-26T02:52:30.655Z,97414.69
2022-09-26T02:53:45.053Z,97420.69
2022-09-26T02:55:18.901Z,97413.09
2022-09-26T02:56:27.761Z,97416.38
2022-09-26T02:57:38.072Z,97411.75
2022-09-26T02:58:51.643Z,97413.81
2022-09-26T02:59:59.416Z,97413.47
2022-09-26T03:01:16.067Z,97417.19
2022-09-26T03:02:32.793Z,97419.56
2022-09-26T03:03:51.068Z,97420.34
2022-09-26T03:05:07.024Z,97420.50
2022-09-26T03:06:14.496Z,97418.66
2022-09-26T03:07:37.693Z,97417.25
2022-09-26T03:08:46.036Z,97418.34
2022-09-26T03:09:51.696Z,97411.69
2022-09-26T03:10:59.913Z,97406.16
2022-09-26T03:12:08.055Z,97412.28
2022-09-26T03:13:15.361Z,97404.47
2022-09-26T03:14:21.610Z,97410.00
2022-09-26T03:15:25.710Z,97406.44
2022-09-26T03:16:36.829Z,97406.09
2022-09-26T03:17:47.371Z,97392.63
2022-09-26T03:18:55.966Z,97397.22
2022-09-26T03:20:05.888Z,97388.06
2022-09-26T03:21:08.779Z,97397.91
2022-09-26T03:22:12.072Z,97398.28
2022-09-26T03:23:14.812Z,97400.09
2022-09-26T03:24:17.624Z,97397.91
2022-09-26T03:25:26.129Z,97400.97
2022-09-26T03:26:31.025Z,97398.97
2022-09-26T03:27:37.310Z,97400.97
2022-09-26T03:28:40.226Z,97394.37
2022-09-26T03:29:42.950Z,97398.44
2022-09-26T03:30:45.588Z,97399.84
2022-09-26T03:31:50.528Z,97390.97
2022-09-26T03:32:53.296Z,97387.28
2022-09-26T03:33:56.082Z,97384.91
2022-09-26T03:34:58.640Z,97374.38
2022-09-26T03:36:05.404Z,97372.88
2022-09-26T03:37:08.610Z,97375.62
2022-09-26T03:38:14.551Z,97369.34
2022-09-26T03:39:17.670Z,97366.66
2022-09-26T03:40:20.483Z,97363.91
2022-09-26T03:41:23.214Z,97356.06
2022-09-26T03:42:25.838Z,97359.31
2022-09-26T03:43:28.751Z,97360.06
2022-09-26T03:44:31.403Z,97351.91
2022-09-26T03:45:36.856Z,97355.91
2022-09-26T03:46:40.280Z,97349.56
2022-09-26T03:47:43.304Z,97360.78
2022-09-26T03:48:45.918Z,97348.69
2022-09-26T03:49:48.650Z,97355.00
2022-09-26T03:50:51.457Z,97349.00
2022-09-26T03:51:54.065Z,97354.84
2022-09-26T03:52:57.005Z,97354.41
2022-09-26T03:53:59.666Z,97351.06
2022-09-26T03:55:02.317Z,97343.00
2022-09-26T03:56:10.803Z,97347.94
2022-09-26T03:57:14.074Z,97347.53
2022-09-26T03:58:17.149Z,97348.75
2022-09-26T03:59:20.037Z,97336.62
2022-09-26T04:00:22.661Z,97336.69
2022-09-26T04:01:25.422Z,97341.06
2022-09-26T04:02:28.188Z,97342.50
2022-09-26T04:03:34.268Z,97334.97
2022-09-26T04:04:36.947Z,97332.31
2022-09-26T04:05:40.290Z,97337.97
2022-09-26T04:06:45.274Z,97331.25
2022-09-26T04:07:48.606Z,97333.87
2022-09-26T04:08:53.097Z,97334.53
2022-09-26T04:09:55.740Z,97323.78
2022-09-26T04:11:06.453Z,97332.19
2022-09-26T04:12:09.117Z,97329.12
2022-09-26T04:13:23.541Z,97334.44
2022-09-26T04:14:35.152Z,97332.56
2022-09-26T04:15:37.829Z,97331.69
2022-09-26T04:16:40.829Z,97333.16
2022-09-26T04:17:43.834Z,97331.00
2022-09-26T04:18:46.502Z,97334.37
2022-09-26T04:19:49.177Z,97329.97
2022-09-26T04:20:58.822Z,97335.59
2022-09-26T04:22:01.614Z,97338.19
2022-09-26T04:23:04.213Z,97346.22
2022-09-26T04:24:15.499Z,97348.37
2022-09-26T04:25:18.234Z,97350.41
2022-09-26T04:26:23.646Z,97346.69
2022-09-26T04:27:29.020Z,97340.59
2022-09-26T04:28:32.294Z,97335.69
2022-09-26T04:29:35.095Z,97334.59
2022-09-26T04:30:37.816Z,97336.69
2022-09-26T04:31:40.960Z,97332.31
2022-09-26T04:32:43.539Z,97326.94
2022-09-26T04:33:46.246Z,97326.19
2022-09-26T04:34:48.933Z,97325.25
2022-09-26T04:35:51.661Z,97335.16
2022-09-26T04:36:54.515Z,97338.91
2022-09-26T04:37:57.140Z,97336.84
2022-09-26T04:39:00.812Z,97335.44
2022-09-26T04:40:04.973Z,97342.97
2022-09-26T04:41:10.462Z,97337.84
2022-09-26T04:42:13.098Z,97333.50
2022-09-26T04:43:15.739Z,97333.19
2022-09-26T04:44:18.461Z,97335.22
2022-09-26T04:45:21.210Z,97331.00
2022-09-26T04:46:30.759Z,97330.56
2022-09-26T04:47:34.257Z,97328.84
2022-09-26T04:48:37.237Z,97331.56
2022-09-26T04:49:39.937Z,97323.63
2022-09-26T04:50:42.542Z,97335.53
2022-09-26T04:51:45.657Z,97325.69
2022-09-26T04:52:48.339Z,97322.47
2022-09-26T04:53:52.024Z,97325.41
2022-09-26T04:54:54.695Z,97327.03
2022-09-26T04:55:57.681Z,97333.63
2022-09-26T04:57:01.321Z,97334.59
2022-09-26T04:58:04.056Z,97336.06
2022-09-26T04:59:06.774Z,97335.81
2022-09-26T05:00:11.802Z,97334.00
2022-09-26T05:01:17.490Z,97333.31
2022-09-26T05:02:20.949Z,97325.87
2022-09-26T05:03:23.709Z,97337.34
2022-09-26T05:04:27.761Z,97334.91
2022-09-26T05:05:31.473Z,97336.31
2022-09-26T05:06:34.197Z,97343.69
2022-09-26T05:07:43.236Z,97345.47
2022-09-26T05:08:52.369Z,97337.72
2022-09-26T05:09:55.091Z,97340.63
2022-09-26T05:10:57.864Z,97343.00
2022-09-26T05:12:00.521Z,97338.53
2022-09-26T05:13:03.683Z,97344.41
2022-09-26T05:14:09.072Z,97337.12
2022-09-26T05:15:11.758Z,97337.59
2022-09-26T05:16:14.664Z,97341.19
2022-09-26T05:17:17.290Z,97344.97
2022-09-26T05:18:20.424Z,97345.12
2022-09-26T05:19:23.164Z,97341.13
2022-09-26T05:20:31.801Z,97336.16
2022-09-26T05:21:35.051Z,97344.97
2022-09-26T05:22:37.766Z,97335.16
2022-09-26T05:23:58.898Z,97334.78
2022-09-26T05:25:20.310Z,97330.03
2022-09-26T05:26:36.629Z,97337.19
2022-09-26T05:27:40.089Z,97335.28
2022-09-26T05:28:42.740Z,97331.06
2022-09-26T05:29:45.499Z,97324.84
2022-09-26T05:30:49.257Z,97318.72
2022-09-26T05:31:54.839Z,97321.38
2022-09-26T05:32:58.332Z,97326.13
2022-09-26T05:34:01.106Z,97320.41
2022-09-26T05:35:05.734Z,97321.41
2022-09-26T05:36:08.958Z,97325.81
2022-09-26T05:37:11.548Z,97314.03
2022-09-26T05:38:14.225Z,97313.47
2022-09-26T05:39:40.249Z,97326.91
2022-09-26T05:40:56.852Z,97321.75
2022-09-26T05:41:59.997Z,97327.38
2022-09-26T05:43:03.820Z,97329.97
2022-09-26T05:44:06.493Z,97327.19
2022-09-26T05:45:09.638Z,97329.69
2022-09-26T05:46:12.635Z,97336.41
2022-09-26T05:47:17.280Z,97337.53
2022-09-26T05:48:20.941Z,97334.88
2022-09-26T05:49:23.952Z,97346.56
2022-09-26T05:50:27.393Z,97358.00
2022-09-26T05:51:30.161Z,97342.78
2022-09-26T05:52:32.764Z,97356.75
2022-09-26T05:53:35.910Z,97358.44
2022-09-26T05:54:38.605Z,97361.47
2022-09-26T05:55:41.547Z,97356.81
2022-09-26T05:56:44.225Z,97353.66
2022-09-26T05:58:01.358Z,97349.75
2022-09-26T05:59:05.223Z,97348.34
2022-09-26T06:00:08.955Z,97348.81
2022-09-26T06:01:16.974Z,97347.41
2022-09-26T06:02:21.005Z,97336.00
2022-09-26T06:03:23.996Z,97333.09
2022-09-26T06:04:26.570Z,97329.69
2022-09-26T06:05:30.287Z,97340.34
2022-09-26T06:06:33.022Z,97330.31
2022-09-26T06:07:35.633Z,97331.16
2022-09-26T06:08:39.459Z,97324.59
2022-09-26T06:09:42.116Z,97310.66
2022-09-26T06:10:44.878Z,97309.25
2022-09-26T06:11:47.428Z,97305.91
2022-09-26T06:12:51.162Z,97303.72
2022-09-26T06:13:53.963Z,97305.41
2022-09-26T06:14:56.575Z,97311.22
2022-09-26T06:16:06.359Z,97314.16
2022-09-26T06:17:09.316Z,97312.94
2022-09-26T06:18:12.264Z,97317.13
2022-09-26T06:19:16.694Z,97315.25
2022-09-26T06:20:22.357Z,97306.09
2022-09-26T06:21:25.047Z,97308.09
2022-09-26T06:22:29.023Z,97308.13
2022-09-26T06:23:33.790Z,97319.75
2022-09-26T06:24:36.483Z,97313.50
2022-09-26T06:25:39.153Z,97313.84
2022-09-26T06:26:41.998Z,97309.94
2022-09-26T06:27:44.618Z,97309.28
2022-09-26T06:28:50.193Z,97308.81
2022-09-26T06:29:52.900Z,97311.16
2022-09-26T06:30:56.670Z,97309.25
2022-09-26T06:31:59.456Z,97313.72
2022-09-26T06:33:02.279Z,97315.97
2022-09-26T06:34:05.599Z,97319.03
2022-09-26T06:35:08.666Z,97321.25
2022-09-26T06:36:11.910Z,97323.38
2022-09-26T06:37:14.813Z,97326.56
2022-09-26T06:38:17.566Z,97322.47
2022-09-26T06:39:20.215Z,97326.25
2022-09-26T06:40:22.889Z,97318.34
2022-09-26T06:41:27.653Z,97325.41
2022-09-26T06:42:38.116Z,97319.22
2022-09-26T06:43:41.141Z,97324.66
2022-09-26T06:44:43.922Z,97327.84
2022-09-26T06:45:49.094Z,97325.37
2022-09-26T06:46:51.925Z,97328.91
2022-09-26T06:47:54.920Z,97325.72
2022-09-26T06:48:58.335Z,97328.13
2022-09-26T06:50:01.923Z,97329.34
2022-09-26T06:51:04.689Z,97330.28
2022-09-26T06:52:07.430Z,97330.12
2022-09-26T06:53:10.957Z,97336.69
2022-09-26T06:54:13.761Z,97328.47
2022-09-26T06:55:16.549Z,97321.56
2022-09-26T06:56:19.400Z,97320.53
2022-09-26T06:57:23.082Z,97311.75
2022-09-26T06:58:26.272Z,97317.00
2022-09-26T06:59:28.953Z,97318.56
2022-09-26T07:00:31.588Z,97315.75
2022-09-26T07:01:34.654Z,97317.06
2022-09-26T07:02:37.600Z,97316.31
2022-09-26T07:03:45.064Z,97325.72
2022-09-26T07:04:49.586Z,97328.50
2022-09-26T07:05:56.048Z,97325.03
2022-09-26T07:07:00.052Z,97325.87
2022-09-26T07:08:03.024Z,97317.56
2022-09-26T07:09:11.290Z,97316.78
2022-09-26T07:10:18.716Z,97322.38
2022-09-26T07:11:38.242Z,97315.72
2022-09-26T07:12:44.396Z,97314.22
2022-09-26T07:13:47.053Z,97313.94
2022-09-26T07:14:53.772Z,97316.88
2022-09-26T07:16:00.679Z,97311.50
2022-09-26T07:17:03.579Z,97318.63
2022-09-26T07:18:07.042Z,97320.81
2022-09-26T07:19:11.999Z,97321.66
2022-09-26T07:20:18.590Z,97321.66
2022-09-26T07:21:21.267Z,97328.47
2022-09-26T07:22:24.048Z,97324.84
2022-09-26T07:23:26.994Z,97321.56
2022-09-26T07:24:29.747Z,97316.28
2022-09-26T07:25:33.601Z,97313.84
2022-09-26T07:26:36.424Z,97312.88
2022-09-26T07:27:40.396Z,97319.13
2022-09-26T07:28:43.208Z,97322.75
2022-09-26T07:29:47.767Z,97327.69
2022-09-26T07:30:50.495Z,97333.63
2022-09-26T07:31:53.285Z,97341.25
2022-09-26T07:33:03.507Z,97332.72
2022-09-26T07:34:07.838Z,97344.34
2022-09-26T07:35:10.580Z,97338.34
2022-09-26T07:36:13.358Z,97346.66
2022-09-26T07:37:17.502Z,97347.19
2022-09-26T07:38:20.297Z,97342.94
2022-09-26T07:39:22.961Z,97338.44
2022-09-26T07:40:26.723Z,97343.53
2022-09-26T07:41:31.278Z,97353.53
2022-09-26T07:42:34.463Z,97352.12
2022-09-26T07:46:41.485Z,97361.44
2022-09-26T07:48:03.078Z,97361.19
2022-09-26T07:49:24.253Z,97363.44
2022-09-26T07:50:27.351Z,97366.06
2022-09-26T07:51:32.610Z,97374.50
2022-09-26T07:52:35.443Z,97367.03
2022-09-26T07:53:41.641Z,97368.00
2022-09-26T07:54:44.273Z,97365.38
2022-09-26T07:56:07.096Z,97368.09
2022-09-26T07:57:09.727Z,97361.72
2022-09-26T07:58:12.595Z,97371.59
2022-09-26T07:59:15.300Z,97364.72
2022-09-26T08:00:21.580Z,97364.37
2022-09-26T08:01:24.974Z,97373.69
2022-09-26T08:02:33.274Z,97364.16
2022-09-26T08:03:36.035Z,97357.38
2022-09-26T08:04:38.724Z,97360.97
2022-09-26T08:05:41.446Z,97366.63
2022-09-26T08:06:44.592Z,97361.56
2022-09-26T08:07:48.933Z,97367.81
2022-09-26T08:08:55.963Z,97362.41
2022-09-26T08:09:59.299Z,97355.41
2022-09-26T08:11:04.326Z,97356.28
2022-09-26T08:12:07.194Z,97355.06
2022-09-26T08:13:09.802Z,97347.94
2022-09-26T08:14:12.662Z,97356.19
2022-09-26T08:15:15.779Z,97357.16
2022-09-26T08:16:23.738Z,97355.53
2022-09-26T08:17:32.691Z,97358.53
2022-09-26T08:18:35.411Z,97365.19
2022-09-26T08:19:38.093Z,97355.91
2022-09-26T08:20:40.730Z,97352.81
2022-09-26T08:21:43.820Z,97353.69
2022-09-26T08:22:46.514Z,97358.28
2022-09-26T08:23:49.193Z,97355.75
2022-09-26T08:24:51.815Z,97360.53
2022-09-26T08:25:54.418Z,97361.69
2022-09-26T08:26:56.975Z,97358.75
2022-09-26T08:28:00.340Z,97367.31
2022-09-26T08:29:03.686Z,97362.25
2022-09-26T08:30:07.847Z,97364.03
2022-09-26T08:31:12.512Z,97367.06
2022-09-26T08:32:16.651Z,97365.75
2022-09-26T08:33:20.833Z,97366.06
2022-09-26T08:34:25.654Z,97368.91
2022-09-26T08:35:35.836Z,97364.97
2022-09-26T08:36:39.438Z,97359.81
2022-09-26T08:37:42.347Z,97367.06
2022-09-26T08:38:45.383Z,97365.50
2022-09-26T08:39:48.537Z,97368.50
2022-09-26T08:41:33.028Z,97366.56
2022-09-26T08:43:04.502Z,97365.97
2022-09-26T08:44:39.584Z,97357.63
2022-09-26T08:46:00.772Z,97362.16
2022-09-26T08:47:34.807Z,97366.41
2022-09-26T08:49:14.955Z,97361.56
2022-09-26T08:50:34.464Z,97366.09
2022-09-26T08:51:49.920Z,97374.75
2022-09-26T08:53:01.363Z,97372.47
2022-09-26T08:54:12.528Z,97374.00
2022-09-26T08:55:24.158Z,97373.47
2022-09-26T08:56:34.103Z,97367.44
2022-09-26T08:57:52.734Z,97378.59
2022-09-26T08:58:58.419Z,97375.62
2022-09-26T09:00:10.431Z,97378.50
2022-09-26T09:01:19.969Z,97373.13
2022-09-26T09:02:33.597Z,97374.78
2022-09-26T09:04:00.180Z,97377.84
2022-09-26T09:05:11.975Z,97381.13
2022-09-26T09:06:15.424Z,97377.72
2022-09-26T09:07:26.340Z,97378.94
2022-09-26T09:08:34.943Z,97379.69
2022-09-26T09:09:38.701Z,97378.91
2022-09-26T09:11:15.858Z,97378.59
2022-09-26T09:12:24.242Z,97380.66
2022-09-26T09:13:56.238Z,97379.00
2022-09-26T09:15:25.616Z,97381.16
2022-09-26T09:16:56.188Z,97383.97
2022-09-26T09:18:19.977Z,97376.03
2022-09-26T09:19:43.846Z,97379.69
2022-09-26T09:21:13.688Z,97376.63
2022-09-26T09:22:33.147Z,97374.75
2022-09-26T09:23:35.834Z,97375.50
2022-09-26T09:25:17.399Z,97367.75
2022-09-26T09:28:19.800Z,97376.03
2022-09-26T09:29:49.344Z,97379.78
2022-09-26T09:31:01.417Z,97379.59
2022-09-26T09:32:05.860Z,97376.81
2022-09-26T09:33:37.562Z,97374.31
2022-09-26T09:34:43.362Z,97377.97
2022-09-26T09:35:52.166Z,97378.94
2022-09-26T09:36:59.595Z,97379.53
2022-09-26T09:38:03.537Z,97374.53
2022-09-26T09:39:09.864Z,97381.53
2022-09-26T09:40:22.559Z,97375.91
2022-09-26T09:41:43.633Z,97374.22
2022-09-26T09:42:53.858Z,97369.69
2022-09-26T09:44:00.876Z,97368.94
2022-09-26T09:45:12.703Z,97363.22
2022-09-26T09:46:26.667Z,97359.56
2022-09-26T09:47:29.997Z,97347.84
2022-09-26T09:48:33.433Z,97359.13
2022-09-26T09:49:36.175Z,97365.69
2022-09-26T09:50:42.824Z,97370.63
2022-09-26T09:52:20.305Z,97362.25
2022-09-26T09:53:44.496Z,97364.41
2022-09-26T09:55:17.484Z,97364.84
2022-09-26T09:56:43.243Z,97366.94
2022-09-26T09:57:52.967Z,97351.38
2022-09-26T09:59:13.964Z,97356.22
2022-09-26T10:00:25.442Z,97352.53
2022-09-26T10:01:42.935Z,97356.37
2022-09-26T10:02:51.531Z,97355.66
2022-09-26T10:04:21.472Z,97352.81
2022-09-26T10:05:47.457Z,97350.88
2022-09-26T10:06:51.747Z,97353.16
2022-09-26T10:07:58.441Z,97346.41
2022-09-26T10:09:39.005Z,97342.44
2022-09-26T10:10:41.609Z,97342.63
2022-09-26T10:11:46.197Z,97348.69
2022-09-26T10:12:53.525Z,97347.25
2022-09-26T10:14:05.390Z,97344.28
2022-09-26T10:15:19.896Z,97348.03
2022-09-26T10:16:24.039Z,97350.19
2022-09-26T10:17:26.803Z,97348.91
2022-09-26T10:18:30.677Z,97341.37
2022-09-26T10:19:37.425Z,97346.22
2022-09-26T10:20:43.029Z,97348.81
2022-09-26T10:21:48.922Z,97343.53
2022-09-26T10:22:52.106Z,97348.50
2022-09-26T10:23:54.855Z,97350.34
2022-09-26T10:25:04.895Z,97347.81
2022-09-26T10:26:10.740Z,97346.41
2022-09-26T10:27:35.098Z,97343.47
2022-09-26T10:28:55.776Z,97346.13
2022-09-26T10:30:00.740Z,97352.41
2022-09-26T10:31:10.075Z,97343.34
2022-09-26T10:32:13.583Z,97343.44
2022-09-26T10:33:29.670Z,97340.94
2022-09-26T10:34:35.221Z,97337.88
2022-09-26T10:35:42.959Z,97343.28
2022-09-26T10:36:45.877Z,97348.41
2022-09-26T10:37:58.251Z,97344.88
2022-09-26T10:39:45.007Z,97345.88
2022-09-26T10:40:55.122Z,97342.19
2022-09-26T10:41:59.587Z,97345.62
2022-09-26T10:43:23.176Z,97343.00
2022-09-26T10:44:34.309Z,97352.12
2022-09-26T10:45:37.158Z,97348.72
2022-09-26T10:46:45.548Z,97355.94
2022-09-26T10:47:53.114Z,97348.69
2022-09-26T10:49:04.503Z,97348.31
2022-09-26T10:50:28.307Z,97344.81
2022-09-26T10:51:36.231Z,97342.03
2022-09-26T10:52:53.937Z,97335.00
2022-09-26T10:54:09.538Z,97338.50
2022-09-26T10:55:18.572Z,97339.47
2022-09-26T10:56:27.743Z,97337.34
2022-09-26T10:57:45.534Z,97341.94
2022-09-26T10:58:51.565Z,97341.78
2022-09-26T10:59:58.794Z,97345.75
2022-09-26T11:01:01.493Z,97351.03
2022-09-26T11:02:05.638Z,97346.50
2022-09-26T11:03:30.459Z,97348.41
2022-09-26T11:04:54.433Z,97350.56
2022-09-26T11:05:57.407Z,97354.00
2022-09-26T11:07:00.187Z,97351.19
2022-09-26T11:08:07.194Z,97354.50
2022-09-26T11:09:11.429Z,97354.03
2022-09-26T11:10:18.832Z,97358.31
2022-09-26T11:11:22.635Z,97356.91
2022-09-26T11:12:31.424Z,97357.44
2022-09-26T11:13:50.270Z,97364.53
2022-09-26T11:14:57.142Z,97357.56
2022-09-26T11:16:09.033Z,97367.03
2022-09-26T11:17:12.060Z,97374.50
2022-09-26T11:18:25.427Z,97371.84
2022-09-26T11:19:39.525Z,97367.34
2022-09-26T11:20:51.950Z,97376.72
2022-09-26T11:22:27.122Z,97377.22
2022-09-26T11:24:06.549Z,97375.97
2022-09-26T11:25:25.299Z,97372.25
2022-09-26T11:27:00.342Z,97365.34
2022-09-26T11:28:32.889Z,97364.00
2022-09-26T11:30:19.613Z,97359.06
2022-09-26T11:31:29.907Z,97364.84
2022-09-26T11:32:41.346Z,97365.22
2022-09-26T11:33:45.371Z,97372.16
2022-09-26T11:34:47.947Z,97364.56
2022-09-26T11:36:05.447Z,97366.88
2022-09-26T11:37:15.708Z,97354.84
2022-09-26T11:38:50.867Z,97356.28
2022-09-26T11:40:17.812Z,97355.38
2022-09-26T11:41:38.741Z,97353.03
2022-09-26T11:42:44.283Z,97353.97
2022-09-26T11:44:02.104Z,97355.47
2022-09-26T11:45:20.611Z,97356.03
2022-09-26T11:46:52.339Z,97348.03
2022-09-26T11:48:06.926Z,97350.56
2022-09-26T11:49:34.542Z,97351.00
2022-09-26T11:51:08.344Z,97346.50
2022-09-26T11:52:29.848Z,97349.22
2022-09-26T11:53:58.630Z,97357.94
2022-09-26T11:55:31.220Z,97357.03
2022-09-26T11:56:49.369Z,97359.75
2022-09-26T11:58:15.040Z,97354.59
2022-09-26T11:59:42.209Z,97353.56
2022-09-26T12:01:07.726Z,97354.84
2022-09-26T12:02:23.849Z,97362.03
2022-09-26T12:03:37.380Z,97355.03
2022-09-26T12:05:11.739Z,97352.06
2022-09-26T12:06:46.329Z,97361.53
2022-09-26T12:08:02.425Z,97356.50
2022-09-26T12:09:31.163Z,97365.38
2022-09-26T12:10:33.999Z,97353.22
2022-09-26T12:11:53.518Z,97350.97
2022-09-26T12:13:08.957Z,97345.31
2022-09-26T12:14:17.598Z,97342.34
2022-09-26T12:15:56.272Z,97339.47
2022-09-26T12:17:18.293Z,97334.75
2022-09-26T12:19:05.444Z,97334.44
2022-09-26T12:20:29.272Z,97335.00
2022-09-26T12:22:20.897Z,97333.84
2022-09-26T12:23:32.736Z,97326.47
2022-09-26T12:25:24.300Z,97312.94
2022-09-26T12:26:34.881Z,97317.50
2022-09-26T12:27:40.299Z,97306.84
2022-09-26T12:29:06.738Z,97306.03
2022-09-26T12:30:16.635Z,97305.94
2022-09-26T12:31:43.220Z,97301.28
2022-09-26T12:33:07.536Z,97304.94
2022-09-26T12:34:22.335Z,97300.75
2022-09-26T12:35:44.832Z,97303.44
2022-09-26T12:37:06.986Z,97298.66
2022-09-26T12:38:09.528Z,97297.66
2022-09-26T12:39:27.446Z,97300.59
2022-09-26T12:41:07.384Z,97309.63
2022-09-26T12:42:34.136Z,97305.34
2022-09-26T12:43:54.875Z,97312.09
2022-09-26T12:45:42.581Z,97308.69
2022-09-26T12:46:58.491Z,97302.78
2022-09-26T12:48:18.826Z,97306.53
2022-09-26T12:49:58.659Z,97304.66
2022-09-26T12:51:36.624Z,97302.66
2022-09-26T12:52:51.510Z,97300.38
2022-09-26T12:54:12.474Z,97287.47
2022-09-26T12:55:31.454Z,97284.06
2022-09-26T12:57:04.567Z,97284.81
2022-09-26T12:58:53.035Z,97276.81
2022-09-26T13:00:11.320Z,97275.28
2022-09-26T13:01:28.893Z,97260.84
2022-09-26T13:02:34.475Z,97271.87
2022-09-26T13:04:07.026Z,97273.78
2022-09-26T13:05:34.660Z,97275.28
2022-09-26T13:07:17.201Z,97278.28
2022-09-26T13:08:53.445Z,97283.09
2022-09-26T13:10:22.198Z,97280.44
2022-09-26T13:11:59.334Z,97272.50
2022-09-26T13:13:14.723Z,97272.16
2022-09-26T13:14:32.335Z,97274.84
2022-09-26T13:15:54.448Z,97281.69
2022-09-26T13:17:10.938Z,97280.19
2022-09-26T13:18:40.034Z,97288.97
2022-09-26T13:19:51.780Z,97281.38
2022-09-26T13:21:00.424Z,97286.34
2022-09-26T13:22:11.308Z,97280.59
2022-09-26T13:23:27.535Z,97282.16
2022-09-26T13:24:51.525Z,97285.56
2022-09-26T13:25:56.115Z,97281.31
2022-09-26T13:27:14.117Z,97283.25
2022-09-26T13:28:24.352Z,97281.38
2022-09-26T13:29:33.811Z,97288.59
2022-09-26T13:30:44.897Z,97290.81
2022-09-26T13:32:04.366Z,97279.03
2022-09-26T13:33:31.598Z,97291.97
2022-09-26T13:34:42.685Z,97287.75
2022-09-26T13:35:48.151Z,97289.97
2022-09-26T13:36:52.256Z,97280.37
2022-09-26T13:38:10.201Z,97291.41
2022-09-26T13:39:17.101Z,97285.22
2022-09-26T13:40:34.663Z,97280.50
2022-09-26T13:41:47.169Z,97284.31
2022-09-26T13:43:29.302Z,97281.00
2022-09-26T13:44:59.324Z,97279.09
2022-09-26T13:46:25.508Z,97282.84
2022-09-26T13:47:56.961Z,97283.84
2022-09-26T13:49:25.432Z,97286.06
2022-09-26T13:50:45.359Z,97284.31
2022-09-26T13:51:58.948Z,97284.66
2022-09-26T13:53:15.464Z,97287.75
2022-09-26T13:54:27.733Z,97286.16